Spicer, Minnesota
Current Conditions -  °F | °C
As of 9:15 AM on Thursday 18 Dec 2014 (Local Time) from KBDH Reporting Station
Clear Clear  
Wind Chill:   Ceiling: Unl
Heat Index: 12°   Visibility: 7mi
Dew Point:   Wind: 5mph
Humidity: 85%   Direction: 140°SE
Pressure: 30.29"   Gusts: NA
Location:  45.23°N, 94.94°W
Report Text: KBDH 181515Z AUTO 14004KT 7SM CLR M11/M13 A3029 RMK AO2
Loading
Personal Weather Stations






























Interactive Weather Map New forecast layout! Learn more

10-Day Weather Forecast

Advertisements
Track Severe Weather on mobile